Terminal Aerodrome Forecast
Issued by NWS Melbourne, FL

Home | Current Version | Previous Version | Text Only | Print | Product List | Glossary On
Versions: 1 2 3 4 5 6 7 8 9 10 11 12 13 14 15 16 17 18 19 20 21 22 23 24
000
FTUS42 KMLB 281128
TAFMCO
TAF
KMCO 281128Z 2812/2912 VRB03KT P6SM FEW030 SCT250
     FM281800 09005KT P6SM VCTS SCT035CB BKN250
      TEMPO 2819/2822 3SM TSRA BKN035CB BKN050
     FM282200 10008KT P6SM VCSH SCT040 BKN080
     FM290000 VRB04KT P6SM SCT070 BKN250=

USA.gov is the U.S. government's official web portal to all federal, state and local government web resources and services.